Time,TemperatureF,DewpointF,PressureIn,WindDirection,WindDirectionDegrees,WindSpeedMPH,WindSpeedGustMPH,Humidity,HourlyPrecipIn,Conditions,Clouds,dailyrainin,SoftwareType,DateUTC
2013-04-03 00:01:00,42.6,18.6,30.05,NNE,26,4.7,4.7,38,0.00,,,0.00,WUHU21623XXSP,2013-04-03 04:01:00,
2013-04-03 00:04:00,42.6,18.6,30.05,NNW,341,4.5,4.7,38,0.00,,,0.00,WUHU21623XXSP,2013-04-03 04:04:00,
2013-04-03 00:05:00,42.6,18.6,30.05,NNW,341,16.1,16.1,38,0.00,,,0.00,WUHU21623XXSP,2013-04-03 04:05:00,
2013-04-03 00:11:00,42.4,18.5,30.06,NNW,341,3.6,16.1,38,0.00,,,0.00,WUHU21623XXSP,2013-04-03 04:11:00,
2013-04-03 00:18:00,41.9,18.0,30.06,NNW,341,4.0,8.3,38,0.00,,,0.00,WUHU21623XXSP,2013-04-03 04:18:00,
2013-04-03 00:24:00,41.5,17.7,30.06,North,3,5.6,8.3,38,0.00,,,0.00,WUHU21623XXSP,2013-04-03 04:24:00,
2013-04-03 00:29:00,41.5,17.7,30.06,NNW,341,6.7,6.7,38,0.00,,,0.00,WUHU21623XXSP,2013-04-03 04:29:00,
2013-04-03 00:35:00,41.2,17.5,30.06,North,3,4.7,6.7,38,0.00,,,0.00,WUHU21623XXSP,2013-04-03 04:35:00,
2013-04-03 00:42:00,41.0,17.2,30.07,North,3,5.8,11.0,38,0.00,,,0.00,WUHU21623XXSP,2013-04-03 04:42:00,
2013-04-03 00:48:00,40.8,17.0,30.06,NNW,341,2.0,7.4,38,0.00,,,0.00,WUHU21623XXSP,2013-04-03 04:48:00,
2013-04-03 00:54:00,40.8,17.0,30.06,NW,318,5.6,7.4,38,0.00,,,0.00,WUHU21623XXSP,2013-04-03 04:54:00,
2013-04-03 01:02:00,40.8,17.0,30.06,NW,318,4.5,8.3,38,0.00,,,0.00,WUHU21623XXSP,2013-04-03 05:02:00,
2013-04-03 01:07:00,40.6,16.9,30.07,NNW,341,4.5,6.5,38,0.00,,,0.00,WUHU21623XXSP,2013-04-03 05:07:00,
2013-04-03 01:14:00,40.6,16.9,30.07,NW,318,3.8,6.5,38,0.00,,,0.00,WUHU21623XXSP,2013-04-03 05:14:00,
2013-04-03 01:20:00,40.6,16.9,30.07,WSW,251,9.4,9.4,38,0.00,,,0.00,WUHU21623XXSP,2013-04-03 05:20:00,
2013-04-03 01:27:00,40.5,16.7,30.07,NNW,341,3.8,9.4,38,0.00,,,0.00,WUHU21623XXSP,2013-04-03 05:27:00,
2013-04-03 01:33:00,40.3,16.6,30.07,NNW,341,4.3,4.3,38,0.00,,,0.00,WUHU21623XXSP,2013-04-03 05:33:00,
2013-04-03 01:40:00,40.1,16.4,30.07,NW,318,7.4,7.4,38,0.00,,,0.00,WUHU21623XXSP,2013-04-03 05:40:00,
2013-04-03 01:48:00,39.9,16.2,30.07,NNW,341,6.3,8.3,38,0.00,,,0.00,WUHU21623XXSP,2013-04-03 05:48:00,
2013-04-03 01:54:00,39.9,16.2,30.07,NW,318,8.5,15.9,38,0.00,,,0.00,WUHU21623XXSP,2013-04-03 05:54:00,
2013-04-03 02:06:00,39.9,16.2,30.07,North,3,1.8,2.5,38,0.00,,,0.00,WUHU21623XXSP,2013-04-03 06:06:00,
2013-04-03 02:12:00,39.9,16.2,30.07,WNW,296,6.7,8.7,38,0.00,,,0.00,WUHU21623XXSP,2013-04-03 06:12:00,
2013-04-03 02:18:00,39.9,16.2,30.07,WSW,251,7.6,8.7,38,0.00,,,0.00,WUHU21623XXSP,2013-04-03 06:18:00,
2013-04-03 02:24:00,39.9,16.2,30.07,NW,321,9.6,10.7,38,0.00,,,0.00,WUHU21623XXSP,2013-04-03 06:24:00,
2013-04-03 02:31:00,39.7,16.1,30.07,WNW,296,10.1,10.7,38,0.00,,,0.00,WUHU21623XXSP,2013-04-03 06:31:00,
2013-04-03 02:37:00,39.6,16.1,30.07,NNW,341,9.6,10.1,38,0.00,,,0.00,WUHU21623XXSP,2013-04-03 06:37:00,
2013-04-03 02:44:00,39.4,15.7,30.07,West,273,6.5,9.6,38,0.00,,,0.00,WUHU21623XXSP,2013-04-03 06:44:00,
2013-04-03 02:50:00,39.4,15.7,30.07,West,273,14.8,14.8,38,0.00,,,0.00,WUHU21623XXSP,2013-04-03 06:50:00,
2013-04-03 02:57:00,39.0,15.4,30.06,NW,318,7.8,17.9,38,0.00,,,0.00,WUHU21623XXSP,2013-04-03 06:57:00,
2013-04-03 03:07:00,39.0,15.4,30.06,NW,318,5.4,7.8,38,0.00,,,0.00,WUHU21623XXSP,2013-04-03 07:07:00,
2013-04-03 03:12:00,39.0,16.1,30.06,NW,318,5.4,5.4,39,0.00,,,0.00,WUHU21623XXSP,2013-04-03 07:12:00,
2013-04-03 03:18:00,39.0,16.1,30.06,NW,318,3.4,7.2,39,0.00,,,0.00,WUHU21623XXSP,2013-04-03 07:18:00,
2013-04-03 03:25:00,39.0,16.1,30.06,West,273,5.4,5.4,39,0.00,,,0.00,WUHU21623XXSP,2013-04-03 07:25:00,
2013-04-03 03:31:00,39.0,16.1,30.06,WNW,296,2.0,5.4,39,0.00,,,0.00,WUHU21623XXSP,2013-04-03 07:31:00,
2013-04-03 03:37:00,39.4,16.4,30.07,West,264,7.6,8.9,39,0.00,,,0.00,WUHU21623XXSP,2013-04-03 07:37:00,
2013-04-03 03:44:00,39.4,16.2,30.06,West,273,5.4,8.9,39,0.00,,,0.00,WUHU21623XXSP,2013-04-03 07:44:00,
2013-04-03 03:50:00,39.0,16.1,30.06,WNW,296,8.5,8.5,39,0.00,,,0.00,WUHU21623XXSP,2013-04-03 07:50:00,
2013-04-03 03:57:00,39.0,16.1,30.06,NW,318,3.4,8.5,39,0.00,,,0.00,WUHU21623XXSP,2013-04-03 07:57:00,
2013-04-03 04:03:00,38.8,16.6,30.06,WNW,296,3.4,6.0,40,0.00,,,0.00,WUHU21623XXSP,2013-04-03 08:03:00,
2013-04-03 04:10:00,38.5,16.4,30.06,NNW,341,6.5,6.5,40,0.00,,,0.00,WUHU21623XXSP,2013-04-03 08:10:00,
2013-04-03 04:18:00,38.5,16.2,30.07,WNW,296,4.7,8.1,40,0.00,,,0.00,WUHU21623XXSP,2013-04-03 08:18:00,
2013-04-03 04:25:00,38.5,16.2,30.07,NNW,341,10.1,10.1,40,0.00,,,0.00,WUHU21623XXSP,2013-04-03 08:25:00,
2013-04-03 04:31:00,38.5,16.2,30.07,NNW,341,5.1,10.1,40,0.00,,,0.00,WUHU21623XXSP,2013-04-03 08:31:00,
2013-04-03 04:38:00,38.5,16.2,30.07,WSW,251,6.0,7.2,40,0.00,,,0.00,WUHU21623XXSP,2013-04-03 08:38:00,
2013-04-03 04:44:00,38.5,16.2,30.08,West,273,6.5,7.2,40,0.00,,,0.00,WUHU21623XXSP,2013-04-03 08:44:00,
2013-04-03 04:50:00,38.5,16.2,30.08,WNW,296,5.4,6.9,40,0.00,,,0.00,WUHU21623XXSP,2013-04-03 08:50:00,
2013-04-03 04:57:00,38.5,16.2,30.07,West,273,8.5,8.5,40,0.00,,,0.00,WUHU21623XXSP,2013-04-03 08:57:00,
2013-04-03 05:04:00,38.5,16.2,30.08,WNW,296,4.7,8.5,40,0.00,,,0.00,WUHU21623XXSP,2013-04-03 09:04:00,
2013-04-03 05:10:00,38.5,16.8,30.08,WNW,296,4.5,4.7,41,0.00,,,0.00,WUHU21623XXSP,2013-04-03 09:10:00,
2013-04-03 05:16:00,38.5,16.8,30.08,NW,318,4.7,4.7,41,0.00,,,0.00,WUHU21623XXSP,2013-04-03 09:16:00,
2013-04-03 05:23:00,38.5,16.8,30.09,West,269,4.3,6.0,41,0.00,,,0.00,WUHU21623XXSP,2013-04-03 09:23:00,
2013-04-03 05:29:00,38.5,16.8,30.09,NNW,341,8.9,8.9,41,0.00,,,0.00,WUHU21623XXSP,2013-04-03 09:29:00,
2013-04-03 05:36:00,38.3,16.6,30.09,NW,318,7.8,10.7,41,0.00,,,0.00,WUHU21623XXSP,2013-04-03 09:36:00,
2013-04-03 05:42:00,38.3,16.6,30.09,WNW,295,3.8,7.8,41,0.00,,,0.00,WUHU21623XXSP,2013-04-03 09:42:00,
2013-04-03 05:48:00,38.5,16.8,30.09,NW,318,2.7,4.9,41,0.00,,,0.00,WUHU21623XXSP,2013-04-03 09:48:00,
2013-04-03 05:55:00,38.5,17.3,30.09,West,273,1.3,3.4,42,0.00,,,0.00,WUHU21623XXSP,2013-04-03 09:55:00,
2013-04-03 06:01:00,38.7,17.4,30.10,WNW,296,5.1,5.1,42,0.00,,,0.00,WUHU21623XXSP,2013-04-03 10:01:00,
2013-04-03 06:08:00,38.7,17.4,30.10,NNW,341,3.8,5.1,42,0.00,,,0.00,WUHU21623XXSP,2013-04-03 10:08:00,
2013-04-03 06:14:00,38.5,17.3,30.10,WSW,251,1.3,3.8,42,0.00,,,0.00,WUHU21623XXSP,2013-04-03 10:14:00,
2013-04-03 06:21:00,38.7,17.4,30.11,WNW,296,4.7,4.7,42,0.00,,,0.00,WUHU21623XXSP,2013-04-03 10:21:00,
2013-04-03 06:27:00,38.8,17.6,30.10,SSW,206,2.2,4.7,42,0.00,,,0.00,WUHU21623XXSP,2013-04-03 10:27:00,
2013-04-03 06:33:00,38.8,17.6,30.11,NW,318,3.6,3.6,42,0.00,,,0.00,WUHU21623XXSP,2013-04-03 10:33:00,
2013-04-03 06:40:00,38.8,17.6,30.11,NW,318,2.7,3.6,42,0.00,,,0.00,WUHU21623XXSP,2013-04-03 10:40:00,
2013-04-03 06:47:00,38.8,17.6,30.12,NW,318,4.0,4.7,42,0.00,,,0.00,WUHU21623XXSP,2013-04-03 10:47:00,
2013-04-03 06:53:00,38.5,17.6,30.11,NNW,341,3.1,4.7,42,0.00,,,0.00,WUHU21623XXSP,2013-04-03 10:53:00,
2013-04-03 06:59:00,38.5,17.3,30.12,WNW,296,4.7,6.5,42,0.00,,,0.00,WUHU21623XXSP,2013-04-03 10:59:00,
2013-04-03 07:05:00,38.3,17.3,30.12,West,273,2.5,4.7,42,0.00,,,0.00,WUHU21623XXSP,2013-04-03 11:05:00,
2013-04-03 07:12:00,38.1,17.0,30.12,NW,318,3.2,7.6,42,0.00,,,0.00,WUHU21623XXSP,2013-04-03 11:12:00,
2013-04-03 07:18:00,37.9,16.8,30.13,NW,318,3.6,4.7,42,0.00,,,0.00,WUHU21623XXSP,2013-04-03 11:18:00,
2013-04-03 07:25:00,37.9,16.8,30.13,West,273,3.1,3.6,42,0.00,,,0.00,WUHU21623XXSP,2013-04-03 11:25:00,
2013-04-03 07:31:00,38.1,17.5,30.13,West,273,8.1,8.1,43,0.00,,,0.00,WUHU21623XXSP,2013-04-03 11:31:00,
2013-04-03 07:38:00,38.1,17.0,30.13,NNW,341,3.8,8.1,42,0.00,,,0.00,WUHU21623XXSP,2013-04-03 11:38:00,
2013-04-03 07:44:00,38.1,17.0,30.13,West,273,3.4,8.3,43,0.00,,,0.00,WUHU21623XXSP,2013-04-03 11:44:00,
2013-04-03 07:51:00,38.1,17.5,30.13,NW,318,3.6,3.6,43,0.00,,,0.00,WUHU21623XXSP,2013-04-03 11:51:00,
2013-04-03 07:57:00,38.1,17.5,30.13,WSW,251,2.9,5.1,43,0.00,,,0.00,WUHU21623XXSP,2013-04-03 11:57:00,
2013-04-03 08:03:00,38.1,17.5,30.14,West,273,9.2,15.7,43,0.00,,,0.00,WUHU21623XXSP,2013-04-03 12:03:00,
2013-04-03 08:10:00,37.9,17.3,30.14,West,273,10.3,15.7,42,0.00,,,0.00,WUHU21623XXSP,2013-04-03 12:10:00,
2013-04-03 08:16:00,37.8,16.6,30.14,WSW,251,7.6,13.6,42,0.00,,,0.00,WUHU21623XXSP,2013-04-03 12:16:00,
2013-04-03 08:22:00,37.9,17.3,30.14,NW,318,15.0,15.0,43,0.00,,,0.00,WUHU21623XXSP,2013-04-03 12:22:00,
2013-04-03 08:29:00,37.9,17.3,30.14,WNW,296,9.8,15.0,43,0.00,,,0.00,WUHU21623XXSP,2013-04-03 12:29:00,
2013-04-03 08:35:00,37.9,17.3,30.13,NNW,341,8.5,9.8,43,0.00,,,0.00,WUHU21623XXSP,2013-04-03 12:35:00,
2013-04-03 08:42:00,37.9,17.3,30.14,WSW,251,7.6,11.4,43,0.00,,,0.00,WUHU21623XXSP,2013-04-03 12:42:00,
2013-04-03 08:48:00,37.9,17.3,30.14,West,273,4.3,11.4,43,0.00,,,0.00,WUHU21623XXSP,2013-04-03 12:48:00,
2013-04-03 08:55:00,38.1,17.5,30.14,West,273,4.5,10.3,43,0.00,,,0.00,WUHU21623XXSP,2013-04-03 12:55:00,
2013-04-03 09:01:00,38.1,17.5,30.13,NW,308,7.1,10.3,43,0.00,,,0.00,WUHU21623XXSP,2013-04-03 13:01:00,
2013-04-03 09:08:00,38.3,17.6,30.13,NW,318,11.6,11.6,43,0.00,,,0.00,WUHU21623XXSP,2013-04-03 13:08:00,
2013-04-03 09:14:00,38.3,17.6,30.13,NW,318,2.0,11.6,43,0.00,,,0.00,WUHU21623XXSP,2013-04-03 13:14:00,
2013-04-03 09:23:00,38.5,17.8,30.12,NNW,341,8.3,8.3,43,0.00,,,0.00,WUHU21623XXSP,2013-04-03 13:23:00,
2013-04-03 09:29:00,38.8,17.6,30.13,NNW,328,11.3,12.8,42,0.00,,,0.00,WUHU21623XXSP,2013-04-03 13:29:00,
2013-04-03 09:35:00,39.0,17.8,30.12,WNW,296,19.2,19.2,42,0.00,,,0.00,WUHU21623XXSP,2013-04-03 13:35:00,
2013-04-03 09:42:00,39.4,18.1,30.12,WNW,296,14.3,19.2,42,0.00,,,0.00,WUHU21623XXSP,2013-04-03 13:42:00,
2013-04-03 09:48:00,39.7,18.2,30.12,NW,318,10.7,14.3,42,0.00,,,0.00,WUHU21623XXSP,2013-04-03 13:48:00,
2013-04-03 09:55:00,40.1,18.7,30.12,WNW,296,6.5,10.7,42,0.00,,,0.00,WUHU21623XXSP,2013-04-03 13:55:00,
2013-04-03 10:01:00,40.8,18.9,30.12,NNW,341,8.3,10.3,41,0.00,,,0.00,WUHU21623XXSP,2013-04-03 14:01:00,
2013-04-03 10:07:00,41.4,19.7,30.12,NW,318,5.4,8.3,41,0.00,,,0.00,WUHU21623XXSP,2013-04-03 14:07:00,
2013-04-03 10:14:00,41.9,19.8,30.12,NNW,341,5.8,10.7,41,0.00,,,0.00,WUHU21623XXSP,2013-04-03 14:14:00,
2013-04-03 10:20:00,42.4,20.3,30.12,WSW,251,3.8,11.0,41,0.00,,,0.00,WUHU21623XXSP,2013-04-03 14:20:00,
2013-04-03 10:27:00,43.0,20.8,30.12,NW,318,10.7,11.0,41,0.00,,,0.00,WUHU21623XXSP,2013-04-03 14:27:00,
2013-04-03 10:33:00,43.5,20.8,30.12,NNW,341,4.0,15.9,40,0.00,,,0.00,WUHU21623XXSP,2013-04-03 14:33:00,
2013-04-03 10:40:00,44.2,20.8,30.12,West,273,6.5,15.9,39,0.00,,,0.00,WUHU21623XXSP,2013-04-03 14:40:00,
2013-04-03 10:47:00,44.4,20.2,30.12,WNW,296,10.3,23.5,38,0.00,,,0.00,WUHU21623XXSP,2013-04-03 14:47:00,
2013-04-03 10:53:00,44.6,20.2,30.12,NNW,341,11.4,13.0,38,0.00,,,0.00,WUHU21623XXSP,2013-04-03 14:53:00,
2013-04-03 11:00:00,45.0,20.7,30.12,North,3,4.0,11.4,38,0.00,,,0.00,WUHU21623XXSP,2013-04-03 15:00:00,
2013-04-03 11:06:00,45.3,21.1,30.12,WSW,251,5.1,7.2,38,0.00,,,0.00,WUHU21623XXSP,2013-04-03 15:06:00,
2013-04-03 11:13:00,46.0,21.7,30.12,WNW,296,9.2,9.2,38,0.00,,,0.00,WUHU21623XXSP,2013-04-03 15:13:00,
2013-04-03 11:19:00,46.2,21.7,30.12,WSW,251,4.5,9.2,38,0.00,,,0.00,WUHU21623XXSP,2013-04-03 15:19:00,
2013-04-03 11:25:00,46.9,22.5,30.12,SSE,161,2.9,12.3,38,0.00,,,0.00,WUHU21623XXSP,2013-04-03 15:25:00,
2013-04-03 11:32:00,47.3,22.2,30.12,West,273,6.5,12.3,37,0.00,,,0.00,WUHU21623XXSP,2013-04-03 15:32:00,
2013-04-03 11:38:00,47.8,22.7,30.12,West,273,3.8,11.6,37,0.00,,,0.00,WUHU21623XXSP,2013-04-03 15:38:00,
2013-04-03 11:45:00,48.0,22.2,30.12,West,273,4.5,13.2,36,0.00,,,0.00,WUHU21623XXSP,2013-04-03 15:45:00,
2013-04-03 11:51:00,48.0,22.2,30.12,NW,318,15.9,15.9,36,0.00,,,0.00,WUHU21623XXSP,2013-04-03 15:51:00,
2013-04-03 11:57:00,48.2,22.3,30.12,West,273,6.9,15.9,36,0.00,,,0.00,WUHU21623XXSP,2013-04-03 15:57:00,
2013-04-03 12:04:00,48.7,22.8,30.12,WNW,296,6.7,8.1,36,0.00,,,0.00,WUHU21623XXSP,2013-04-03 16:04:00,
2013-04-03 12:11:00,48.9,22.3,30.12,North,3,3.6,9.4,35,0.00,,,0.00,WUHU21623XXSP,2013-04-03 16:11:00,
2013-04-03 12:17:00,49.3,22.6,30.12,WSW,251,12.5,12.5,35,0.00,,,0.00,WUHU21623XXSP,2013-04-03 16:17:00,
2013-04-03 12:23:00,49.8,23.0,30.12,West,273,10.5,13.4,35,0.00,,,0.00,WUHU21623XXSP,2013-04-03 16:23:00,
2013-04-03 12:30:00,50.2,23.3,30.12,SW,228,7.6,13.4,35,0.00,,,0.00,WUHU21623XXSP,2013-04-03 16:30:00,
2013-04-03 12:36:00,50.9,23.3,30.12,WNW,296,15.0,15.0,34,0.00,,,0.00,WUHU21623XXSP,2013-04-03 16:36:00,
2013-04-03 12:43:00,51.4,23.8,30.11,West,273,11.4,16.6,34,0.00,,,0.00,WUHU21623XXSP,2013-04-03 16:43:00,
2013-04-03 12:49:00,52.0,24.3,30.11,West,273,5.8,16.6,34,0.00,,,0.00,WUHU21623XXSP,2013-04-03 16:49:00,
2013-04-03 12:55:00,52.5,24.1,30.11,West,273,23.0,23.0,33,0.00,,,0.00,WUHU21623XXSP,2013-04-03 16:55:00,
2013-04-03 13:02:00,52.9,24.4,30.10,SW,228,6.3,23.0,33,0.00,,,0.00,WUHU21623XXSP,2013-04-03 17:02:00,
2013-04-03 13:09:00,53.2,24.7,30.10,NNW,341,8.5,14.5,33,0.00,,,0.00,WUHU21623XXSP,2013-04-03 17:09:00,
2013-04-03 13:15:00,53.4,24.9,30.10,West,273,8.5,14.5,32,0.00,,,0.00,WUHU21623XXSP,2013-04-03 17:15:00,
2013-04-03 13:22:00,53.8,24.5,30.09,WNW,296,4.9,8.5,32,0.00,,,0.00,WUHU21623XXSP,2013-04-03 17:22:00,
2013-04-03 13:28:00,54.3,24.9,30.10,NW,318,6.0,7.4,32,0.00,,,0.00,WUHU21623XXSP,2013-04-03 17:28:00,
2013-04-03 13:35:00,54.7,25.3,30.10,SW,228,4.7,6.0,32,0.00,,,0.00,WUHU21623XXSP,2013-04-03 17:35:00,
2013-04-03 13:41:00,55.2,25.7,30.09,North,3,14.5,14.5,32,0.00,,,0.00,WUHU21623XXSP,2013-04-03 17:41:00,
2013-04-03 13:47:00,55.2,26.0,30.09,WNW,286,3.7,14.5,32,0.00,,,0.00,WUHU21623XXSP,2013-04-03 17:47:00,
2013-04-03 13:54:00,55.8,25.5,30.10,NNW,341,8.3,11.2,31,0.00,,,0.00,WUHU21623XXSP,2013-04-03 17:54:00,
2013-04-03 14:00:00,55.6,25.3,30.09,WSW,251,6.0,11.6,31,0.00,,,0.00,WUHU21623XXSP,2013-04-03 18:00:00,
2013-04-03 14:07:00,55.8,25.5,30.09,West,273,7.4,10.7,31,0.00,,,0.00,WUHU21623XXSP,2013-04-03 18:07:00,
2013-04-03 14:15:00,55.2,25.0,30.08,NNW,341,7.2,7.4,31,0.00,,,0.00,WUHU21623XXSP,2013-04-03 18:15:00,
2013-04-03 14:22:00,55.2,25.0,30.07,NW,318,5.4,7.2,31,0.00,,,0.00,WUHU21623XXSP,2013-04-03 18:22:00,
2013-04-03 14:28:00,55.0,24.2,30.08,WNW,296,7.4,7.8,30,0.00,,,0.00,WUHU21623XXSP,2013-04-03 18:28:00,
2013-04-03 14:35:00,54.9,24.0,30.08,NW,318,15.9,15.9,30,0.00,,,0.00,WUHU21623XXSP,2013-04-03 18:35:00,
2013-04-03 14:44:00,54.1,23.4,30.08,NW,318,9.6,15.9,30,0.00,,,0.00,WUHU21623XXSP,2013-04-03 18:44:00,
2013-04-03 14:50:00,54.0,23.3,30.07,NNW,333,5.9,9.6,31,0.00,,,0.00,WUHU21623XXSP,2013-04-03 18:50:00,
2013-04-03 14:56:00,53.4,22.8,30.07,NW,318,13.2,13.2,30,0.00,,,0.00,WUHU21623XXSP,2013-04-03 18:56:00,
2013-04-03 15:02:00,53.2,22.8,30.07,NW,318,6.5,13.2,30,0.00,,,0.00,WUHU21623XXSP,2013-04-03 19:02:00,
2013-04-03 15:09:00,53.1,22.5,30.07,NNW,341,6.9,8.7,30,0.00,,,0.00,WUHU21623XXSP,2013-04-03 19:09:00,
2013-04-03 15:15:00,53.2,23.4,30.07,West,273,9.6,9.6,31,0.00,,,0.00,WUHU21623XXSP,2013-04-03 19:15:00,
2013-04-03 15:22:00,53.4,22.8,30.07,NW,318,10.5,19.0,30,0.00,,,0.00,WUHU21623XXSP,2013-04-03 19:22:00,
2013-04-03 15:28:00,53.2,23.4,30.07,West,273,6.3,19.0,31,0.00,,,0.00,WUHU21623XXSP,2013-04-03 19:28:00,
2013-04-03 15:35:00,53.2,22.7,30.07,WNW,296,4.3,13.4,30,0.00,,,0.00,WUHU21623XXSP,2013-04-03 19:35:00,
2013-04-03 15:41:00,53.1,23.4,30.07,West,273,10.3,13.4,30,0.00,,,0.00,WUHU21623XXSP,2013-04-03 19:41:00,
2013-04-03 15:48:00,52.9,23.0,30.07,West,273,4.0,10.3,31,0.00,,,0.00,WUHU21623XXSP,2013-04-03 19:48:00,
2013-04-03 15:54:00,52.7,23.0,30.07,West,273,6.0,8.3,31,0.00,,,0.00,WUHU21623XXSP,2013-04-03 19:54:00,
2013-04-03 16:00:00,52.5,22.7,30.07,NW,318,7.2,7.2,31,0.00,,,0.00,WUHU21623XXSP,2013-04-03 20:00:00,
2013-04-03 16:07:00,52.3,21.9,30.07,West,273,4.9,11.2,30,0.00,,,0.00,WUHU21623XXSP,2013-04-03 20:07:00,
2013-04-03 16:13:00,52.3,22.7,30.07,NW,318,9.4,11.2,31,0.00,,,0.00,WUHU21623XXSP,2013-04-03 20:13:00,
2013-04-03 16:20:00,52.2,21.7,30.07,NW,318,8.7,13.0,30,0.00,,,0.00,WUHU21623XXSP,2013-04-03 20:20:00,
2013-04-03 16:26:00,52.0,22.2,30.07,NNW,341,9.6,13.0,31,0.00,,,0.00,WUHU21623XXSP,2013-04-03 20:26:00,
2013-04-03 16:33:00,51.8,21.4,30.07,NNW,341,4.7,18.3,30,0.00,,,0.00,WUHU21623XXSP,2013-04-03 20:33:00,
2013-04-03 16:39:00,51.6,21.2,30.07,West,273,8.1,18.3,30,0.00,,,0.00,WUHU21623XXSP,2013-04-03 20:39:00,
2013-04-03 16:46:00,51.4,21.1,30.08,NNW,341,5.8,11.4,30,0.00,,,0.00,WUHU21623XXSP,2013-04-03 20:46:00,
2013-04-03 16:52:00,51.4,21.1,30.08,NW,318,10.5,10.5,30,0.00,,,0.00,WUHU21623XXSP,2013-04-03 20:52:00,
2013-04-03 16:59:00,51.3,20.9,30.08,NNW,341,7.6,10.5,30,0.00,,,0.00,WUHU21623XXSP,2013-04-03 20:59:00,
2013-04-03 17:05:00,51.1,20.7,30.08,NW,318,7.6,16.3,30,0.00,,,0.00,WUHU21623XXSP,2013-04-03 21:05:00,
2013-04-03 17:11:00,50.9,20.6,30.09,WNW,296,7.8,16.3,30,0.00,,,0.00,WUHU21623XXSP,2013-04-03 21:11:00,
2013-04-03 17:18:00,50.7,20.4,30.08,NW,318,6.9,7.8,30,0.00,,,0.00,WUHU21623XXSP,2013-04-03 21:18:00,
2013-04-03 17:24:00,50.5,20.2,30.09,NW,318,7.4,9.4,30,0.00,,,0.00,WUHU21623XXSP,2013-04-03 21:24:00,
2013-04-03 17:33:00,50.4,20.1,30.09,North,3,10.1,10.1,30,0.00,,,0.00,WUHU21623XXSP,2013-04-03 21:33:00,
2013-04-03 17:40:00,50.2,19.9,30.09,NNW,341,10.3,10.3,30,0.00,,,0.00,WUHU21623XXSP,2013-04-03 21:40:00,
2013-04-03 17:46:00,50.2,20.6,30.10,NW,318,9.8,10.3,31,0.00,,,0.00,WUHU21623XXSP,2013-04-03 21:46:00,
2013-04-03 17:52:00,50.0,19.8,30.10,NW,318,10.3,10.3,30,0.00,,,0.00,WUHU21623XXSP,2013-04-03 21:52:00,
2013-04-03 17:59:00,49.8,19.6,30.11,WSW,251,7.4,10.3,30,0.00,,,0.00,WUHU21623XXSP,2013-04-03 21:59:00,
2013-04-03 18:05:00,49.5,19.3,30.11,NW,318,10.3,10.3,30,0.00,,,0.00,WUHU21623XXSP,2013-04-03 22:05:00,
2013-04-03 18:12:00,49.1,19.0,30.11,NNW,341,4.7,10.7,30,0.00,,,0.00,WUHU21623XXSP,2013-04-03 22:12:00,
2013-04-03 18:18:00,48.7,18.8,30.11,NNW,341,8.3,10.5,30,0.00,,,0.00,WUHU21623XXSP,2013-04-03 22:18:00,
2013-04-03 18:24:00,48.6,18.6,30.12,WNW,296,4.9,10.7,30,0.00,,,0.00,WUHU21623XXSP,2013-04-03 22:24:00,
2013-04-03 18:31:00,48.2,18.3,30.13,WNW,296,11.4,11.4,30,0.00,,,0.00,WUHU21623XXSP,2013-04-03 22:31:00,
2013-04-03 18:37:00,48.0,18.2,30.13,West,273,4.0,11.4,30,0.00,,,0.00,WUHU21623XXSP,2013-04-03 22:37:00,
2013-04-03 18:44:00,47.8,18.0,30.14,NW,318,20.4,20.4,30,0.00,,,0.00,WUHU21623XXSP,2013-04-03 22:44:00,
2013-04-03 18:50:00,47.3,17.5,30.15,NW,318,5.1,20.4,30,0.00,,,0.00,WUHU21623XXSP,2013-04-03 22:50:00,
2013-04-03 18:57:00,46.9,18.0,30.15,WNW,296,9.6,9.6,31,0.00,,,0.00,WUHU21623XXSP,2013-04-03 22:57:00,
2013-04-03 19:03:00,46.8,17.7,30.16,NW,318,8.9,9.6,31,0.00,,,0.00,WUHU21623XXSP,2013-04-03 23:03:00,
2013-04-03 19:10:00,46.2,17.2,30.16,West,273,8.9,10.1,31,0.00,,,0.00,WUHU21623XXSP,2013-04-03 23:10:00,
2013-04-03 19:16:00,46.0,17.0,30.16,WNW,296,3.8,8.9,31,0.00,,,0.00,WUHU21623XXSP,2013-04-03 23:16:00,
2013-04-03 19:23:00,45.7,16.7,30.16,NW,318,14.5,14.5,31,0.00,,,0.00,WUHU21623XXSP,2013-04-03 23:23:00,
2013-04-03 19:29:00,45.5,16.6,30.17,WNW,301,6.9,14.5,31,0.00,,,0.00,WUHU21623XXSP,2013-04-03 23:29:00,
2013-04-03 19:35:00,45.3,16.4,30.17,NNW,341,4.5,10.5,31,0.00,,,0.00,WUHU21623XXSP,2013-04-03 23:35:00,
2013-04-03 19:42:00,45.0,16.2,30.18,NW,318,6.2,8.1,31,0.00,,,0.00,WUHU21623XXSP,2013-04-03 23:42:00,
2013-04-03 19:50:00,44.8,15.9,30.18,NNW,341,5.8,11.2,31,0.00,,,0.00,WUHU21623XXSP,2013-04-03 23:50:00,
2013-04-03 19:57:00,44.6,16.4,30.19,NW,318,7.4,11.2,32,0.00,,,0.00,WUHU21623XXSP,2013-04-03 23:57:00,
2013-04-03 20:03:00,44.4,16.3,30.19,NW,318,7.4,7.4,32,0.00,,,0.00,WUHU21623XXSP,2013-04-04 00:03:00,
2013-04-03 20:10:00,44.4,16.3,30.19,NNW,341,3.8,7.4,32,0.00,,,0.00,WUHU21623XXSP,2013-04-04 00:10:00,
2013-04-03 20:16:00,44.4,16.3,30.20,NNW,341,5.1,13.0,32,0.00,,,0.00,WUHU21623XXSP,2013-04-04 00:16:00,
2013-04-03 20:23:00,44.2,16.1,30.20,NNW,341,4.7,13.0,32,0.00,,,0.00,WUHU21623XXSP,2013-04-04 00:23:00,
2013-04-03 20:29:00,43.9,15.9,30.20,NW,318,6.9,8.1,32,0.00,,,0.00,WUHU21623XXSP,2013-04-04 00:29:00,
2013-04-03 20:36:00,43.9,16.4,30.21,West,273,6.3,8.9,33,0.00,,,0.00,WUHU21623XXSP,2013-04-04 00:36:00,
2013-04-03 20:42:00,43.5,16.1,30.21,NW,318,4.2,8.9,33,0.00,,,0.00,WUHU21623XXSP,2013-04-04 00:42:00,
2013-04-03 20:49:00,43.5,16.1,30.22,WNW,296,5.1,5.4,33,0.00,,,0.00,WUHU21623XXSP,2013-04-04 00:49:00,
2013-04-03 20:55:00,43.5,16.1,30.22,NNW,341,11.2,11.2,33,0.00,,,0.00,WUHU21623XXSP,2013-04-04 00:55:00,
2013-04-03 21:01:00,43.3,15.9,30.22,NNW,341,5.1,11.2,33,0.00,,,0.00,WUHU21623XXSP,2013-04-04 01:01:00,
2013-04-03 21:08:00,43.2,15.8,30.22,NW,318,8.9,8.9,33,0.00,,,0.00,WUHU21623XXSP,2013-04-04 01:08:00,
2013-04-03 21:14:00,43.0,15.6,30.23,NW,318,6.3,9.8,33,0.00,,,0.00,WUHU21623XXSP,2013-04-04 01:14:00,
2013-04-03 21:21:00,43.0,15.6,30.23,WNW,296,7.4,7.4,33,0.00,,,0.00,WUHU21623XXSP,2013-04-04 01:21:00,
2013-04-03 21:27:00,43.0,16.3,30.24,WNW,296,6.9,7.4,34,0.00,,,0.00,WUHU21623XXSP,2013-04-04 01:27:00,
2013-04-03 21:34:00,42.6,16.0,30.24,North,3,8.3,8.3,34,0.00,,,0.00,WUHU21623XXSP,2013-04-04 01:34:00,
2013-04-03 21:40:00,42.6,16.0,30.24,WNW,296,4.3,8.3,34,0.00,,,0.00,WUHU21623XXSP,2013-04-04 01:40:00,
2013-04-03 21:46:00,42.4,15.8,30.24,North,3,5.6,6.9,34,0.00,,,0.00,WUHU21623XXSP,2013-04-04 01:46:00,
2013-04-03 21:53:00,42.1,15.7,30.24,NNW,341,10.3,10.3,34,0.00,,,0.00,WUHU21623XXSP,2013-04-04 01:53:00,
2013-04-03 21:59:00,42.1,15.5,30.24,West,273,3.1,10.3,34,0.00,,,0.00,WUHU21623XXSP,2013-04-04 01:59:00,
2013-04-03 22:06:00,41.7,15.2,30.25,WNW,296,20.6,20.6,34,0.00,,,0.00,WUHU21623XXSP,2013-04-04 02:06:00,
2013-04-03 22:12:00,41.7,15.9,30.25,WNW,296,7.4,20.6,35,0.00,,,0.00,WUHU21623XXSP,2013-04-04 02:12:00,
2013-04-03 22:19:00,41.5,15.7,30.25,West,273,8.1,8.5,35,0.00,,,0.00,WUHU21623XXSP,2013-04-04 02:19:00,
2013-04-03 22:25:00,41.5,15.7,30.25,NNW,341,6.3,10.7,35,0.00,,,0.00,WUHU21623XXSP,2013-04-04 02:25:00,
2013-04-03 22:31:00,41.4,15.6,30.26,WNW,296,8.1,10.7,35,0.00,,,0.00,WUHU21623XXSP,2013-04-04 02:31:00,
2013-04-03 22:38:00,41.2,15.4,30.25,NNW,341,10.5,13.0,35,0.00,,,0.00,WUHU21623XXSP,2013-04-04 02:38:00,
2013-04-03 22:44:00,41.0,15.3,30.25,NNW,341,14.8,14.8,35,0.00,,,0.00,WUHU21623XXSP,2013-04-04 02:44:00,
2013-04-03 22:50:00,40.8,15.1,30.25,North,3,8.9,14.8,35,0.00,,,0.00,WUHU21623XXSP,2013-04-04 02:50:00,
2013-04-03 22:57:00,40.6,14.9,30.25,NNW,341,12.5,12.5,35,0.00,,,0.00,WUHU21623XXSP,2013-04-04 02:57:00,
2013-04-03 23:06:00,40.3,15.3,30.26,NNW,341,23.9,23.9,36,0.00,,,0.00,WUHU21623XXSP,2013-04-04 03:06:00,
2013-04-03 23:12:00,40.1,15.1,30.26,NW,318,3.8,23.9,36,0.00,,,0.00,WUHU21623XXSP,2013-04-04 03:12:00,
2013-04-03 23:19:00,39.9,14.9,30.26,North,3,10.5,10.5,36,0.00,,,0.00,WUHU21623XXSP,2013-04-04 03:19:00,
2013-04-03 23:25:00,39.9,14.9,30.26,NNW,341,17.4,17.4,36,0.00,,,0.00,WUHU21623XXSP,2013-04-04 03:25:00,
2013-04-03 23:32:00,39.7,14.8,30.26,West,273,4.3,17.4,36,0.00,,,0.00,WUHU21623XXSP,2013-04-04 03:32:00,
2013-04-03 23:38:00,39.7,15.4,30.26,North,3,10.7,12.5,37,0.00,,,0.00,WUHU21623XXSP,2013-04-04 03:38:00,
2013-04-03 23:45:00,39.7,15.4,30.26,North,3,3.8,10.7,37,0.00,,,0.00,WUHU21623XXSP,2013-04-04 03:45:00,
2013-04-03 23:51:00,39.6,15.4,30.26,WNW,296,9.4,9.4,37,0.00,,,0.00,WUHU21623XXSP,2013-04-04 03:51:00,
2013-04-03 23:57:00,39.6,15.3,30.26,NNW,341,3.4,9.4,37,0.00,,,0.00,WUHU21623XXSP,2013-04-04 03:57:00,